Time;durP1;ratioP1;P1;durP2;ratioP2;P2;SDS_P1;SDS_P2;PMS_P1;PMS_P2;Temp;Humidity;BMP_temperature;BMP_pressure;BME280_temperature;BME280_humidity;BME280_pressure;Samples;Min_cycle;Max_cycle;Signal;HPM_P1;HPM_P2
2021/12/26 00:02:23;;;;;;;7.80;4.40;;;-4.90;99.90;;;;;;5124695;28;20031;-61
2021/12/26 00:04:50;;;;;;;6.60;3.80;;;-4.90;99.90;;;;;;5142688;28;20047;-60
2021/12/26 00:07:16;;;;;;;6.63;3.70;;;-4.80;99.90;;;;;;5124728;28;20064;-60
2021/12/26 00:09:41;;;;;;;6.53;3.75;;;-4.90;99.90;;;;;;5139741;28;20096;-61
2021/12/26 00:12:08;;;;;;;6.30;3.63;;;-4.90;99.90;;;;;;5120500;27;20039;-60
2021/12/26 00:14:34;;;;;;;5.95;3.20;;;-4.90;99.90;;;;;;5131581;27;20039;-61
2021/12/26 00:16:59;;;;;;;6.80;3.43;;;-4.90;99.90;;;;;;5111947;27;20332;-60
2021/12/26 00:19:25;;;;;;;5.50;3.10;;;-4.90;99.90;;;;;;5147257;27;20288;-60
2021/12/26 00:21:51;;;;;;;6.25;3.85;;;-4.90;99.90;;;;;;5147146;27;20050;-60
2021/12/26 00:24:16;;;;;;;6.68;3.80;;;-4.90;99.90;;;;;;5147627;27;20035;-61
2021/12/26 00:26:42;;;;;;;5.97;3.57;;;-4.90;99.90;;;;;;5135543;27;20040;-61
2021/12/26 00:29:08;;;;;;;6.60;3.30;;;-4.90;99.90;;;;;;5112915;27;20787;-59
2021/12/26 00:31:34;;;;;;;6.53;3.70;;;-4.90;99.90;;;;;;5147176;27;20043;-60
2021/12/26 00:34:00;;;;;;;5.50;3.43;;;-4.90;99.90;;;;;;5128320;27;20046;-60
2021/12/26 00:36:25;;;;;;;6.97;3.00;;;-4.90;99.90;;;;;;5128805;27;20448;-60
2021/12/26 00:38:51;;;;;;;12.73;4.28;;;-4.90;99.90;;;;;;5128118;27;20047;-60
2021/12/26 00:41:17;;;;;;;7.35;3.85;;;-4.90;99.90;;;;;;5146545;27;20485;-59
2021/12/26 00:43:43;;;;;;;8.15;3.63;;;-4.90;99.90;;;;;;5146922;27;20043;-59
2021/12/26 00:46:09;;;;;;;7.20;3.78;;;-4.90;99.90;;;;;;5131497;27;20092;-59
2021/12/26 00:48:35;;;;;;;7.27;4.03;;;-5.00;99.90;;;;;;5114938;27;20115;-59
2021/12/26 00:51:00;;;;;;;6.50;3.50;;;-5.00;99.90;;;;;;5128340;27;20039;-60
2021/12/26 00:53:28;;;;;;;6.60;3.30;;;-5.00;99.90;;;;;;5146192;27;20312;-60
2021/12/26 00:55:54;;;;;;;7.05;3.60;;;-5.00;99.90;;;;;;5146358;27;20043;-60
2021/12/26 00:58:20;;;;;;;8.35;3.78;;;-5.00;99.90;;;;;;5128155;27;20103;-60
2021/12/26 01:00:49;;;;;;;5.57;3.33;;;-5.00;99.90;;;;;;5146755;27;20091;-59
2021/12/26 01:03:17;;;;;;;5.63;3.20;;;-4.90;99.90;;;;;;5128100;27;20047;-59
2021/12/26 01:05:46;;;;;;;5.88;3.10;;;-5.00;99.90;;;;;;5109907;27;20093;-59
2021/12/26 01:08:14;;;;;;;5.93;3.20;;;-4.90;99.90;;;;;;5127878;27;20081;-60
2021/12/26 01:10:49;;;;;;;5.97;3.65;;;-4.90;99.90;;;;;;5146643;27;20054;-60
2021/12/26 01:13:24;;;;;;;8.60;3.45;;;-4.90;99.90;;;;;;5127594;27;20054;-60
2021/12/26 01:15:53;;;;;;;9.68;3.47;;;-5.00;99.90;;;;;;5145884;27;20378;-60
2021/12/26 01:18:19;;;;;;;5.75;3.22;;;-4.90;99.90;;;;;;5133726;27;20069;-60
2021/12/26 01:21:20;;;;;;;5.28;3.08;;;-5.00;99.90;;;;;;5146125;27;20039;-60
2021/12/26 01:23:37;;;;;;;5.53;3.00;;;-5.00;99.90;;;;;;5141188;27;20047;-60
2021/12/26 01:26:03;;;;;;;8.50;3.50;;;-5.00;99.90;;;;;;5145540;27;20088;-60
2021/12/26 01:28:28;;;;;;;5.57;3.30;;;-5.00;99.90;;;;;;5146537;27;20060;-60
2021/12/26 01:30:55;;;;;;;6.30;3.07;;;-5.00;99.90;;;;;;5146110;27;20478;-60
2021/12/26 01:33:22;;;;;;;4.90;2.63;;;-5.00;99.90;;;;;;5127783;27;20065;-60
2021/12/26 01:35:48;;;;;;;5.20;3.08;;;-5.00;99.90;;;;;;5145393;27;20470;-60
2021/12/26 01:38:14;;;;;;;5.85;3.30;;;-5.00;99.90;;;;;;5126925;27;20071;-60
2021/12/26 01:40:44;;;;;;;5.57;3.50;;;-5.00;99.90;;;;;;5146219;27;20134;-60
2021/12/26 01:43:10;;;;;;;7.50;3.60;;;-5.00;99.90;;;;;;5145539;27;20467;-60
2021/12/26 01:45:36;;;;;;;7.28;4.05;;;-5.00;99.90;;;;;;5126590;27;20501;-61
2021/12/26 01:48:04;;;;;;;5.47;3.33;;;-5.00;99.90;;;;;;5127043;27;20069;-60
2021/12/26 01:50:31;;;;;;;7.87;3.60;;;-5.00;99.90;;;;;;5127489;27;20043;-60
2021/12/26 01:52:57;;;;;;;8.27;3.47;;;-5.00;99.90;;;;;;5124715;27;20508;-60
2021/12/26 01:55:26;;;;;;;6.03;3.50;;;-5.00;99.90;;;;;;5126628;27;20091;-60
2021/12/26 01:57:54;;;;;;;6.95;4.05;;;-4.90;99.90;;;;;;5126019;27;20059;-60
2021/12/26 02:00:21;;;;;;;7.00;3.25;;;-4.90;99.90;;;;;;5145589;27;20480;-59
2021/12/26 02:02:48;;;;;;;7.60;3.10;;;-4.90;99.90;;;;;;5145594;27;20519;-60
2021/12/26 02:05:15;;;;;;;7.45;2.95;;;-4.90;99.90;;;;;;5145739;27;20144;-60
2021/12/26 02:07:40;;;;;;;5.32;2.90;;;-4.90;99.90;;;;;;5144923;27;20129;-60
2021/12/26 02:10:07;;;;;;;4.60;2.67;;;-4.90;99.90;;;;;;5126724;27;20065;-59
2021/12/26 02:12:33;;;;;;;5.22;2.83;;;-4.90;99.90;;;;;;5126794;27;20043;-60
2021/12/26 02:14:58;;;;;;;5.28;2.85;;;-4.90;99.90;;;;;;5145124;27;20074;-60
2021/12/26 02:17:25;;;;;;;5.83;3.67;;;-4.90;99.90;;;;;;5125615;27;20031;-60
2021/12/26 02:19:53;;;;;;;4.90;2.58;;;-4.90;99.90;;;;;;5125805;27;20311;-60
2021/12/26 02:22:27;;;;;;;6.45;3.15;;;-4.90;99.90;;;;;;5144753;27;20061;-60
2021/12/26 02:25:12;;;;;;;5.45;2.92;;;-4.90;99.90;;;;;;5145324;27;20043;-60
2021/12/26 02:27:42;;;;;;;8.15;3.13;;;-4.90;99.90;;;;;;5128374;27;20175;-59
2021/12/26 02:30:13;;;;;;;5.60;2.70;;;-4.90;99.90;;;;;;5126287;27;20035;-60
2021/12/26 02:32:39;;;;;;;5.90;2.75;;;-4.90;99.90;;;;;;5126237;27;20051;-59
2021/12/26 02:35:05;;;;;;;6.72;3.20;;;-4.90;99.90;;;;;;5144946;27;20042;-60
2021/12/26 02:37:31;;;;;;;4.03;2.65;;;-5.00;99.90;;;;;;5125871;27;20054;-59
2021/12/26 02:39:57;;;;;;;5.30;3.10;;;-5.00;99.90;;;;;;5125929;27;20043;-59
2021/12/26 02:42:23;;;;;;;7.37;2.93;;;-5.00;99.90;;;;;;5144965;27;20085;-60
2021/12/26 02:44:49;;;;;;;8.50;3.00;;;-5.00;99.90;;;;;;5145017;27;20505;-59
2021/12/26 02:47:30;;;;;;;6.05;2.60;;;-5.00;99.90;;;;;;5144502;27;20397;-59
2021/12/26 02:50:01;;;;;;;23.67;3.53;;;-5.00;99.90;;;;;;5124110;28;20048;-59
2021/12/26 02:52:27;;;;;;;5.85;2.70;;;-5.00;99.90;;;;;;5124324;27;20054;-59
2021/12/26 02:54:53;;;;;;;;;;;-5.00;99.90;;;;;;5144977;27;20156;-59
2021/12/26 02:57:21;;;;;;;5.65;3.10;;;-5.00;99.90;;;;;;5125538;27;19923;-60
2021/12/26 02:59:47;;;;;;;5.05;2.60;;;-5.00;99.90;;;;;;5144539;27;20096;-60
2021/12/26 03:02:13;;;;;;;7.07;2.83;;;-5.00;99.90;;;;;;5125331;27;20043;-59
2021/12/26 03:04:38;;;;;;;5.40;3.13;;;-5.00;99.90;;;;;;5125438;27;20178;-60
2021/12/26 03:07:04;;;;;;;7.13;3.00;;;-5.00;99.90;;;;;;5125360;27;20062;-60
2021/12/26 03:09:33;;;;;;;5.55;3.00;;;-5.00;99.90;;;;;;5144271;27;20039;-60
2021/12/26 03:12:00;;;;;;;5.40;3.05;;;-5.00;99.90;;;;;;5144464;27;20125;-60
2021/12/26 03:14:26;;;;;;;4.45;2.50;;;-5.00;99.90;;;;;;5125633;27;20043;-60
2021/12/26 03:16:52;;;;;;;4.60;2.50;;;-5.00;99.90;;;;;;5144066;27;20039;-60
2021/12/26 03:19:18;;;;;;;4.22;2.63;;;-5.00;99.90;;;;;;5143880;27;20035;-60
2021/12/26 03:21:44;;;;;;;4.90;2.80;;;-5.00;99.90;;;;;;5143792;27;20051;-60
2021/12/26 03:24:10;;;;;;;4.83;3.00;;;-5.00;99.90;;;;;;5125240;27;20062;-60
2021/12/26 03:26:35;;;;;;;5.53;2.75;;;-5.00;99.90;;;;;;5108294;27;20357;-60
2021/12/26 03:29:01;;;;;;;4.33;2.60;;;-5.00;99.90;;;;;;5143712;27;20482;-60
2021/12/26 03:31:27;;;;;;;4.15;2.72;;;-5.00;99.90;;;;;;5108635;27;20079;-60
2021/12/26 03:33:53;;;;;;;4.47;2.60;;;-5.10;99.90;;;;;;5143433;27;20045;-61
2021/12/26 03:36:18;;;;;;;6.43;2.73;;;-5.10;99.90;;;;;;5125666;27;20410;-61
2021/12/26 03:38:44;;;;;;;7.57;2.97;;;-5.10;99.90;;;;;;5143335;27;20078;-60
2021/12/26 03:41:10;;;;;;;3.83;2.63;;;-5.10;99.90;;;;;;5124889;27;20055;-60
2021/12/26 03:43:36;;;;;;;5.40;2.95;;;-5.10;99.90;;;;;;5143472;27;20047;-60
2021/12/26 03:46:02;;;;;;;5.35;2.80;;;-5.10;99.90;;;;;;5125209;27;20068;-60
2021/12/26 03:48:27;;;;;;;5.68;2.95;;;-5.10;99.90;;;;;;5124595;28;20324;-61
2021/12/26 03:50:55;;;;;;;5.55;2.80;;;-5.10;99.90;;;;;;5143697;27;20122;-61
2021/12/26 03:53:20;;;;;;;4.03;2.90;;;-5.10;99.90;;;;;;5143261;27;20097;-61
2021/12/26 03:55:47;;;;;;;5.30;2.90;;;-5.10;99.90;;;;;;5124854;28;20046;-60
2021/12/26 03:58:13;;;;;;;4.13;2.70;;;-5.10;99.90;;;;;;5143612;28;20144;-60
2021/12/26 04:00:41;;;;;;;5.35;2.70;;;-5.10;99.90;;;;;;5124903;28;20039;-60
2021/12/26 04:03:07;;;;;;;4.75;2.70;;;-5.10;99.90;;;;;;5125080;28;20040;-60
2021/12/26 04:05:34;;;;;;;6.40;3.05;;;-5.10;99.90;;;;;;5143638;28;20035;-61
2021/12/26 04:08:00;;;;;;;4.57;2.80;;;-5.10;99.90;;;;;;5143169;28;20473;-61
2021/12/26 04:10:25;;;;;;;5.47;2.65;;;-5.20;99.90;;;;;;5125081;28;20083;-60
2021/12/26 04:12:53;;;;;;;4.33;3.00;;;-5.10;99.90;;;;;;5125063;28;20046;-60
2021/12/26 04:15:21;;;;;;;4.50;2.80;;;-5.10;99.90;;;;;;5143422;27;20292;-61
2021/12/26 04:17:49;;;;;;;6.72;2.90;;;-5.10;99.90;;;;;;5126196;28;20114;-61
2021/12/26 04:20:14;;;;;;;5.68;2.83;;;-5.20;99.90;;;;;;5124858;28;20260;-61
2021/12/26 04:22:40;;;;;;;4.80;2.47;;;-5.20;99.90;;;;;;5124689;28;20042;-61
2021/12/26 04:25:07;;;;;;;5.32;2.80;;;-5.20;99.90;;;;;;5125062;28;20049;-60
2021/12/26 04:27:33;;;;;;;5.07;2.90;;;-5.20;99.90;;;;;;5121966;28;20066;-61
2021/12/26 04:29:59;;;;;;;5.32;2.70;;;-5.20;99.90;;;;;;5143628;28;20104;-61
2021/12/26 04:32:24;;;;;;;4.57;2.55;;;-5.20;99.90;;;;;;5143275;28;20035;-61
2021/12/26 04:34:50;;;;;;;5.10;2.80;;;-5.20;99.90;;;;;;5143773;28;20043;-61
2021/12/26 04:37:16;;;;;;;5.67;2.73;;;-5.20;99.90;;;;;;5143091;28;20508;-61
2021/12/26 04:39:41;;;;;;;4.50;2.77;;;-5.20;99.90;;;;;;5106977;28;20051;-61
2021/12/26 04:42:08;;;;;;;3.92;2.53;;;-5.20;99.90;;;;;;5107423;28;20307;-61
2021/12/26 04:44:33;;;;;;;4.28;2.53;;;-5.20;99.90;;;;;;5124564;27;20062;-61
2021/12/26 04:46:59;;;;;;;5.18;2.53;;;-5.20;99.90;;;;;;5124423;28;20047;-61
2021/12/26 04:49:25;;;;;;;5.10;2.47;;;-5.30;99.90;;;;;;5124311;28;20083;-61
2021/12/26 04:51:51;;;;;;;3.97;2.50;;;-5.30;99.90;;;;;;5142823;27;20035;-61
2021/12/26 04:54:16;;;;;;;4.63;2.65;;;-5.30;99.90;;;;;;5143146;28;20057;-61
2021/12/26 04:56:42;;;;;;;4.65;2.60;;;-5.30;99.90;;;;;;5124300;28;20062;-61
2021/12/26 04:59:08;;;;;;;4.32;2.42;;;-5.30;99.90;;;;;;5143192;27;20055;-61
2021/12/26 05:01:35;;;;;;;4.50;2.80;;;-5.30;99.90;;;;;;5146696;27;20054;-61
2021/12/26 05:04:01;;;;;;;4.22;2.63;;;-5.30;99.90;;;;;;5146678;27;20039;-61
2021/12/26 05:06:27;;;;;;;5.57;2.55;;;-5.30;99.90;;;;;;5146484;27;20136;-61
2021/12/26 05:08:53;;;;;;;4.05;2.67;;;-5.30;99.90;;;;;;5146366;27;20130;-60
2021/12/26 05:11:19;;;;;;;4.50;2.53;;;-5.30;99.90;;;;;;5127627;27;20149;-61
2021/12/26 05:13:45;;;;;;;4.63;2.47;;;-5.30;99.90;;;;;;5146259;27;20042;-61
2021/12/26 05:16:10;;;;;;;4.93;2.80;;;-5.30;99.90;;;;;;5146269;27;20347;-61
2021/12/26 05:18:36;;;;;;;4.20;2.60;;;-5.40;99.90;;;;;;5136710;27;20321;-61
2021/12/26 05:21:02;;;;;;;4.40;2.58;;;-5.40;99.90;;;;;;5127204;27;20042;-61
2021/12/26 05:23:28;;;;;;;3.15;2.30;;;-5.30;99.90;;;;;;5145924;27;20035;-61
2021/12/26 05:25:54;;;;;;;4.73;2.77;;;-5.30;99.90;;;;;;5146773;27;20035;-61
2021/12/26 05:28:19;;;;;;;4.90;2.60;;;-5.30;99.90;;;;;;5127454;27;20474;-61
2021/12/26 05:30:45;;;;;;;4.50;2.70;;;-5.30;99.90;;;;;;5146161;27;20411;-61
2021/12/26 05:33:11;;;;;;;4.38;2.70;;;-5.30;99.90;;;;;;5127396;27;20047;-61
2021/12/26 05:35:37;;;;;;;7.15;2.80;;;-5.30;99.90;;;;;;5127731;27;20051;-61
2021/12/26 05:38:03;;;;;;;4.07;2.50;;;-5.30;99.90;;;;;;5127382;27;20039;-61
2021/12/26 05:40:29;;;;;;;4.95;2.63;;;-5.30;99.90;;;;;;5127451;27;20313;-61
2021/12/26 05:42:54;;;;;;;3.70;2.30;;;-5.30;99.90;;;;;;5126730;27;20143;-61
2021/12/26 05:45:20;;;;;;;3.93;2.47;;;-5.30;99.90;;;;;;5127325;27;20300;-61
2021/12/26 05:47:46;;;;;;;4.88;2.42;;;-5.30;99.90;;;;;;5146013;27;20039;-61
2021/12/26 05:50:19;;;;;;;5.18;2.60;;;-5.40;99.90;;;;;;5127064;27;20069;-61
2021/12/26 05:52:45;;;;;;;6.87;2.87;;;-5.40;99.90;;;;;;5126294;27;20130;-61
2021/12/26 05:55:11;;;;;;;5.93;2.80;;;-5.40;99.90;;;;;;5126907;27;20047;-61
2021/12/26 05:57:37;;;;;;;5.18;2.70;;;-5.40;99.90;;;;;;5145648;27;20123;-61
2021/12/26 06:00:07;;;;;;;4.57;2.92;;;-5.30;99.90;;;;;;5126532;27;20055;-61
2021/12/26 06:02:32;;;;;;;6.13;2.60;;;-5.30;99.90;;;;;;5145790;27;20103;-61
2021/12/26 06:04:58;;;;;;;4.37;2.70;;;-5.30;99.90;;;;;;5126545;27;20528;-61
2021/12/26 06:07:24;;;;;;;6.03;2.70;;;-5.30;99.90;;;;;;5145345;27;20031;-60
2021/12/26 06:09:49;;;;;;;9.85;2.70;;;-5.30;99.90;;;;;;5126267;27;20094;-60
2021/12/26 06:12:16;;;;;;;5.77;2.70;;;-5.30;99.90;;;;;;5126894;27;20115;-61
2021/12/26 06:14:42;;;;;;;5.82;2.90;;;-5.30;99.90;;;;;;5126163;27;20293;-61
2021/12/26 06:17:09;;;;;;;6.57;3.33;;;-5.40;99.90;;;;;;5139668;27;20039;-61
2021/12/26 06:19:34;;;;;;;4.95;2.80;;;-5.30;99.90;;;;;;5138536;27;20047;-61
2021/12/26 06:22:02;;;;;;;4.60;2.53;;;-5.40;99.90;;;;;;5126172;27;20273;-60
2021/12/26 06:24:29;;;;;;;6.05;3.28;;;-5.30;99.90;;;;;;5144595;27;20065;-60
2021/12/26 06:26:55;;;;;;;8.32;3.17;;;-5.30;99.90;;;;;;5126611;27;20067;-61
2021/12/26 06:29:21;;;;;;;3.95;2.65;;;-5.40;99.90;;;;;;5126252;27;20050;-61
2021/12/26 06:31:46;;;;;;;3.97;2.70;;;-5.40;99.90;;;;;;5145061;27;20483;-61
2021/12/26 06:34:12;;;;;;;12.82;3.20;;;-5.40;99.90;;;;;;5144612;27;20047;-61
2021/12/26 06:36:38;;;;;;;4.73;3.00;;;-5.40;99.90;;;;;;5145115;27;20053;-60
2021/12/26 06:39:04;;;;;;;5.77;2.90;;;-5.40;99.90;;;;;;5144860;27;20296;-61
2021/12/26 06:41:30;;;;;;;4.88;2.92;;;-5.40;99.90;;;;;;5144554;27;20366;-61
2021/12/26 06:43:56;;;;;;;5.45;3.20;;;-5.40;99.90;;;;;;5144525;27;20098;-60
2021/12/26 06:46:21;;;;;;;6.93;3.07;;;-5.40;99.90;;;;;;5144568;27;20047;-60
2021/12/26 06:48:48;;;;;;;5.60;2.97;;;-5.40;99.90;;;;;;5125711;27;20054;-60
2021/12/26 06:51:13;;;;;;;7.13;3.05;;;-5.40;99.90;;;;;;5144965;27;20375;-60
2021/12/26 06:53:39;;;;;;;6.37;3.30;;;-5.40;99.90;;;;;;5125580;27;20045;-61
2021/12/26 06:56:05;;;;;;;4.53;2.87;;;-5.40;99.90;;;;;;5144084;27;20123;-60
2021/12/26 06:58:32;;;;;;;5.90;3.10;;;-5.40;99.90;;;;;;5125884;27;20628;-61
2021/12/26 07:00:57;;;;;;;5.38;2.95;;;-5.50;99.90;;;;;;5144656;27;20118;-60
2021/12/26 07:03:23;;;;;;;5.53;3.60;;;-5.50;99.90;;;;;;5125752;27;20042;-60
2021/12/26 07:05:48;;;;;;;4.87;3.20;;;-5.50;99.90;;;;;;5125830;27;20296;-60
2021/12/26 07:08:14;;;;;;;9.20;3.17;;;-5.50;99.90;;;;;;5137129;27;20056;-60
2021/12/26 07:10:40;;;;;;;5.13;2.90;;;-5.50;99.90;;;;;;5111834;27;20039;-60
2021/12/26 07:13:06;;;;;;;5.73;3.60;;;-5.50;99.90;;;;;;5144227;27;20135;-59
2021/12/26 07:15:32;;;;;;;7.22;3.67;;;-5.50;99.90;;;;;;5144546;27;20320;-60
2021/12/26 07:17:57;;;;;;;7.72;3.10;;;-5.50;99.90;;;;;;5124775;27;20047;-60
2021/12/26 07:20:24;;;;;;;6.65;3.25;;;-5.50;99.90;;;;;;5143717;27;20050;-60
2021/12/26 07:22:49;;;;;;;;;;;-5.50;99.90;;;;;;5143264;27;20121;-63
2021/12/26 07:25:16;;;;;;;6.10;3.40;;;-5.50;99.90;;;;;;5124656;27;19927;-61
2021/12/26 07:27:42;;;;;;;;;;;-5.50;99.90;;;;;;5122965;27;20070;-61
2021/12/26 07:30:08;;;;;;;5.77;3.20;;;-5.50;99.90;;;;;;5124195;27;19920;-62
2021/12/26 07:32:34;;;;;;;6.95;3.63;;;-5.50;99.90;;;;;;5124281;27;20086;-61
2021/12/26 07:35:00;;;;;;;6.00;3.70;;;-5.50;99.90;;;;;;5143100;27;20043;-61
2021/12/26 07:37:27;;;;;;;6.60;3.15;;;-5.50;99.90;;;;;;5106545;27;20059;-62
2021/12/26 07:39:54;;;;;;;5.27;3.40;;;-5.50;99.90;;;;;;5143102;27;20062;-62
2021/12/26 07:42:21;;;;;;;5.53;3.27;;;-5.50;99.90;;;;;;5123780;27;20076;-63
2021/12/26 07:44:47;;;;;;;5.95;3.50;;;-5.50;99.90;;;;;;5117981;28;20047;-62
2021/12/26 07:47:13;;;;;;;7.22;3.67;;;-5.60;99.90;;;;;;5125012;27;20102;-60
2021/12/26 07:49:39;;;;;;;8.15;4.10;;;-5.60;99.90;;;;;;5124459;27;20039;-60
2021/12/26 07:52:11;;;;;;;5.40;3.58;;;-5.50;99.90;;;;;;5143728;27;20061;-60
2021/12/26 07:54:39;;;;;;;5.20;3.40;;;-5.50;99.90;;;;;;5107858;28;20077;-59
2021/12/26 07:57:06;;;;;;;6.07;3.87;;;-5.50;99.90;;;;;;5143003;27;20047;-59
2021/12/26 07:59:32;;;;;;;5.67;3.50;;;-5.50;99.90;;;;;;5143489;28;20041;-60
2021/12/26 08:01:58;;;;;;;6.10;3.63;;;-5.50;99.90;;;;;;5143447;28;20046;-58
2021/12/26 08:04:24;;;;;;;8.33;3.90;;;-5.50;99.90;;;;;;5143580;28;20047;-59
2021/12/26 08:06:49;;;;;;;6.45;3.70;;;-5.50;99.90;;;;;;5124822;28;20100;-59
2021/12/26 08:09:15;;;;;;;5.63;3.70;;;-5.50;99.90;;;;;;5143281;28;20047;-58
2021/12/26 08:11:41;;;;;;;5.70;3.53;;;-5.50;99.90;;;;;;5124520;28;20066;-60
2021/12/26 08:14:06;;;;;;;4.80;3.53;;;-5.50;99.90;;;;;;5143161;27;20398;-60
2021/12/26 08:16:32;;;;;;;6.90;4.17;;;-5.50;99.90;;;;;;5143429;28;20043;-60
2021/12/26 08:18:58;;;;;;;7.93;4.50;;;-5.50;99.90;;;;;;5143007;27;20088;-60
2021/12/26 08:21:24;;;;;;;7.18;4.10;;;-5.50;99.90;;;;;;5142626;28;20092;-59
2021/12/26 08:23:50;;;;;;;8.18;4.28;;;-5.50;99.90;;;;;;5143174;28;20039;-59
2021/12/26 08:26:15;;;;;;;6.87;4.67;;;-5.50;99.90;;;;;;5118823;28;20086;-60
2021/12/26 08:28:41;;;;;;;6.53;4.43;;;-5.50;99.90;;;;;;5143669;28;20059;-58
2021/12/26 08:31:09;;;;;;;8.07;4.07;;;-5.50;99.90;;;;;;5119963;28;20066;-59
2021/12/26 08:33:35;;;;;;;8.90;4.63;;;-5.50;99.90;;;;;;5141980;27;20347;-59
2021/12/26 08:36:01;;;;;;;7.13;4.63;;;-5.50;99.90;;;;;;5140733;27;20102;-60
2021/12/26 08:38:27;;;;;;;7.70;4.63;;;-5.50;99.90;;;;;;5146656;27;20050;-61
2021/12/26 08:40:55;;;;;;;8.60;4.85;;;-5.50;99.90;;;;;;5144184;27;20489;-60
2021/12/26 08:43:24;;;;;;;10.33;4.50;;;-5.50;99.90;;;;;;5127858;27;20043;-59
2021/12/26 08:45:51;;;;;;;7.17;4.30;;;-5.50;99.90;;;;;;5128319;27;20073;-60
2021/12/26 08:48:17;;;;;;;5.65;4.05;;;-5.50;99.90;;;;;;5127927;27;20043;-60
2021/12/26 08:50:44;;;;;;;6.55;4.07;;;-5.50;99.90;;;;;;5147141;27;20158;-60
2021/12/26 08:53:10;;;;;;;6.50;4.20;;;-5.50;99.90;;;;;;5127857;27;20341;-60
2021/12/26 08:55:37;;;;;;;7.80;4.00;;;-5.50;99.90;;;;;;5146774;27;20043;-60
2021/12/26 08:58:06;;;;;;;;;;;-5.50;99.90;;;;;;5128503;27;20047;-59
2021/12/26 09:00:33;;;;;;;9.87;4.63;;;-5.50;99.90;;;;;;5145478;27;19923;-58
2021/12/26 09:02:59;;;;;;;7.23;4.30;;;-5.50;99.90;;;;;;5117707;27;20104;-59
2021/12/26 09:05:25;;;;;;;5.13;4.10;;;-5.40;99.90;;;;;;5128016;27;20408;-59
2021/12/26 09:07:50;;;;;;;8.68;3.97;;;-5.40;99.90;;;;;;5146336;27;20305;-58
2021/12/26 09:10:17;;;;;;;5.93;4.28;;;-5.30;99.90;;;;;;5146644;27;20047;-58
2021/12/26 09:12:43;;;;;;;6.72;4.40;;;-5.30;99.90;;;;;;5146831;27;20039;-59
2021/12/26 09:15:10;;;;;;;7.65;4.43;;;-5.20;99.90;;;;;;5146304;27;20053;-59
2021/12/26 09:17:36;;;;;;;7.53;3.90;;;-5.20;99.90;;;;;;5146265;27;20039;-59
2021/12/26 09:20:06;;;;;;;7.65;4.10;;;-5.20;99.90;;;;;;5124845;27;20055;-59
2021/12/26 09:22:32;;;;;;;7.87;4.30;;;-5.20;99.90;;;;;;5137471;27;20449;-61
2021/12/26 09:24:57;;;;;;;8.13;4.13;;;-5.10;99.90;;;;;;5142703;27;20081;-58
2021/12/26 09:27:23;;;;;;;6.68;3.92;;;-5.10;99.90;;;;;;5121434;27;20069;-58
2021/12/26 09:29:49;;;;;;;7.03;4.07;;;-5.00;99.90;;;;;;5144654;27;20035;-58
2021/12/26 09:32:14;;;;;;;5.47;3.70;;;-5.00;99.90;;;;;;5145677;27;20107;-59
2021/12/26 09:34:40;;;;;;;9.60;4.70;;;-5.00;99.90;;;;;;5127717;27;20434;-59
2021/12/26 09:37:09;;;;;;;6.93;4.10;;;-5.00;99.90;;;;;;5126635;27;20115;-57
2021/12/26 09:39:35;;;;;;;8.00;4.33;;;-4.90;99.90;;;;;;5145174;27;20043;-58
2021/12/26 09:42:01;;;;;;;;;;;-4.90;99.90;;;;;;5126239;27;20039;-58
2021/12/26 09:44:27;;;;;;;8.10;4.10;;;-4.90;99.90;;;;;;5138222;27;20409;-57
2021/12/26 09:46:53;;;;;;;7.82;4.20;;;-4.80;99.90;;;;;;5119916;27;20111;-58
2021/12/26 09:49:19;;;;;;;10.25;3.70;;;-4.80;99.90;;;;;;5136381;27;20119;-57
2021/12/26 09:51:45;;;;;;;6.63;4.07;;;-4.80;99.90;;;;;;5135511;27;20537;-57
2021/12/26 09:54:11;;;;;;;6.55;4.22;;;-4.70;99.90;;;;;;5135368;27;20035;-58
2021/12/26 09:56:37;;;;;;;5.55;3.88;;;-4.70;99.90;;;;;;5127500;27;20051;-55
2021/12/26 09:59:18;;;;;;;6.27;3.67;;;-4.60;99.90;;;;;;5109187;27;20071;-59
2021/12/26 10:01:50;;;;;;;6.43;3.97;;;-4.60;99.90;;;;;;5126780;27;20050;-60
2021/12/26 10:04:18;;;;;;;6.33;3.77;;;-4.50;99.90;;;;;;5144863;27;20058;-59
2021/12/26 10:06:45;;;;;;;7.72;4.28;;;-4.50;99.90;;;;;;5126917;27;20075;-58
2021/12/26 10:09:11;;;;;;;6.00;3.92;;;-4.50;99.90;;;;;;5145468;27;20058;-59
2021/12/26 10:11:42;;;;;;;8.20;4.55;;;-4.50;99.90;;;;;;5126738;27;20039;-59
2021/12/26 10:14:14;;;;;;;7.70;4.10;;;-4.40;99.90;;;;;;5126307;27;20066;-59
2021/12/26 10:16:56;;;;;;;9.20;4.07;;;-4.30;99.90;;;;;;5145357;27;20045;-58
2021/12/26 10:19:23;;;;;;;5.70;3.93;;;-4.30;99.90;;;;;;5136246;27;20108;-58
2021/12/26 10:21:54;;;;;;;7.80;4.22;;;-4.20;99.90;;;;;;5144773;27;20035;-59
2021/12/26 10:24:29;;;;;;;8.30;4.97;;;-4.20;99.90;;;;;;5126536;27;20452;-58
2021/12/26 10:27:02;;;;;;;6.60;4.03;;;-4.20;99.90;;;;;;5119199;27;20043;-58
2021/12/26 10:29:39;;;;;;;8.07;4.18;;;-4.10;99.90;;;;;;5126001;27;20126;-58
2021/12/26 10:32:09;;;;;;;6.50;3.80;;;-4.00;99.90;;;;;;5144209;27;20047;-58
2021/12/26 10:34:58;;;;;;;6.63;4.07;;;-4.00;99.90;;;;;;5123726;27;20035;-58
2021/12/26 10:37:32;;;;;;;5.82;4.03;;;-4.00;99.90;;;;;;5106239;27;20063;-58
2021/12/26 10:40:16;;;;;;;6.20;4.20;;;-3.90;99.90;;;;;;5144589;27;20375;-57
2021/12/26 10:42:50;;;;;;;6.15;3.97;;;-3.90;99.90;;;;;;5126091;27;20058;-58
2021/12/26 10:45:20;;;;;;;7.22;3.92;;;-3.80;99.90;;;;;;5144172;27;20074;-58
2021/12/26 10:47:52;;;;;;;8.77;4.43;;;-3.70;99.90;;;;;;5125876;27;20080;-58
2021/12/26 10:50:21;;;;;;;5.60;3.42;;;-3.70;99.90;;;;;;5144442;27;20099;-58
2021/12/26 10:53:02;;;;;;;7.63;4.40;;;-3.70;99.90;;;;;;5125516;27;20042;-59
2021/12/26 10:55:30;;;;;;;7.60;4.20;;;-3.60;99.90;;;;;;5125919;27;20043;-59
2021/12/26 10:57:56;;;;;;;7.00;4.50;;;-3.60;99.90;;;;;;5143373;27;20061;-59
2021/12/26 11:00:26;;;;;;;7.10;4.47;;;-3.60;99.90;;;;;;5125820;27;20063;-57
2021/12/26 11:03:00;;;;;;;6.03;4.03;;;-3.50;99.90;;;;;;5108298;27;20050;-57
2021/12/26 11:05:41;;;;;;;6.75;4.35;;;-3.50;99.90;;;;;;5144082;27;20091;-56
2021/12/26 11:08:24;;;;;;;8.05;4.05;;;-3.40;99.90;;;;;;5107175;27;20375;-57
2021/12/26 11:10:54;;;;;;;4.97;3.85;;;-3.40;99.90;;;;;;5125201;27;20071;-57
2021/12/26 11:13:26;;;;;;;6.18;4.18;;;-3.40;99.90;;;;;;5144176;27;20071;-57
2021/12/26 11:15:57;;;;;;;8.15;4.40;;;-3.30;99.90;;;;;;5144522;27;20437;-56
2021/12/26 11:18:23;;;;;;;8.07;4.30;;;-3.30;99.90;;;;;;5143581;27;20094;-57
2021/12/26 11:20:52;;;;;;;6.53;4.07;;;-3.20;99.90;;;;;;5144062;27;20103;-57
2021/12/26 11:23:24;;;;;;;8.52;4.18;;;-3.20;99.90;;;;;;5143629;27;20039;-57
2021/12/26 11:25:58;;;;;;;7.32;4.38;;;-3.10;99.90;;;;;;5144056;27;20316;-57
2021/12/26 11:28:28;;;;;;;7.30;4.50;;;-3.00;99.90;;;;;;5143862;27;20411;-57
2021/12/26 11:31:07;;;;;;;6.53;4.05;;;-2.80;99.90;;;;;;5125238;27;20051;-57
2021/12/26 11:33:34;;;;;;;7.00;4.00;;;-2.70;99.90;;;;;;5118489;27;20470;-57
2021/12/26 11:36:03;;;;;;;7.80;4.18;;;-2.70;99.90;;;;;;5141540;27;20058;-58
2021/12/26 11:38:29;;;;;;;7.30;4.25;;;-2.70;99.90;;;;;;5123446;27;20126;-58
2021/12/26 11:41:00;;;;;;;6.90;4.20;;;-2.70;99.90;;;;;;5107761;27;20351;-59
2021/12/26 11:43:40;;;;;;;7.10;4.03;;;-2.80;99.90;;;;;;5143488;27;20058;-59
2021/12/26 11:46:22;;;;;;;8.68;4.75;;;-2.80;99.90;;;;;;5124830;27;20047;-58
2021/12/26 11:49:28;;;;;;;6.30;3.78;;;-2.80;99.90;;;;;;5142729;27;20055;-57
2021/12/26 11:52:24;;;;;;;6.85;4.30;;;-2.70;99.90;;;;;;5143082;27;20078;-58
2021/12/26 11:55:18;;;;;;;7.50;4.07;;;-2.70;99.90;;;;;;5107125;28;20061;-56
2021/12/26 11:58:21;;;;;;;5.22;3.60;;;-2.60;99.90;;;;;;5120835;28;20086;-59
2021/12/26 12:00:53;;;;;;;6.55;3.90;;;-2.60;99.90;;;;;;5124747;28;20051;-58
2021/12/26 12:03:29;;;;;;;6.10;3.70;;;-2.50;99.90;;;;;;5123508;28;20058;-58
2021/12/26 12:05:56;;;;;;;6.72;3.85;;;-2.50;99.90;;;;;;5143049;28;20027;-58
2021/12/26 12:08:29;;;;;;;9.27;4.47;;;-2.50;99.90;;;;;;5121832;28;20048;-58
2021/12/26 12:10:56;;;;;;;8.52;4.45;;;-2.50;99.90;;;;;;5138316;27;20051;-59
2021/12/26 12:13:21;;;;;;;8.45;4.40;;;-2.40;99.90;;;;;;5128413;27;20062;-59
2021/12/26 12:15:56;;;;;;;6.70;4.03;;;-2.40;99.90;;;;;;5127992;27;20603;-59
2021/12/26 12:18:33;;;;;;;8.07;3.95;;;-2.40;99.90;;;;;;5118936;27;20102;-59
2021/12/26 12:21:28;;;;;;;6.40;4.10;;;-2.40;99.90;;;;;;5146748;27;20047;-59
2021/12/26 12:24:18;;;;;;;11.30;4.53;;;-2.30;99.90;;;;;;5126607;28;20410;-59
2021/12/26 12:27:08;;;;;;;5.72;3.80;;;-2.30;99.90;;;;;;5119428;27;20119;-59
2021/12/26 12:29:44;;;;;;;5.63;3.83;;;-2.30;99.90;;;;;;5043340;28;20049;-58
2021/12/26 12:32:11;;;;;;;12.45;4.25;;;-2.20;99.90;;;;;;5024797;28;20112;-56
2021/12/26 12:35:01;;;;;;;5.40;3.70;;;-2.20;99.90;;;;;;5012101;28;20057;-59
2021/12/26 12:37:43;;;;;;;5.88;3.95;;;-2.20;99.90;;;;;;5008222;28;20041;-60
2021/12/26 12:40:25;;;;;;;6.50;4.25;;;-2.20;99.90;;;;;;5025968;28;20112;-60
2021/12/26 12:43:08;;;;;;;7.88;4.28;;;-2.10;99.90;;;;;;5026515;28;20177;-59
2021/12/26 12:45:53;;;;;;;8.60;4.75;;;-2.10;99.90;;;;;;5027768;28;20055;-58
2021/12/26 12:48:27;;;;;;;7.43;3.95;;;-2.10;99.90;;;;;;5024989;28;20088;-58
2021/12/26 12:50:57;;;;;;;8.57;4.47;;;-2.10;99.90;;;;;;5026436;28;20053;-60
2021/12/26 12:53:48;;;;;;;6.75;3.90;;;-2.00;99.90;;;;;;5042883;28;20128;-61
2021/12/26 12:56:41;;;;;;;6.32;3.92;;;-2.00;99.90;;;;;;5009912;28;20050;-59